Time;durP1;ratioP1;P1;durP2;ratioP2;P2;SDS_P1;SDS_P2;PMS_P1;PMS_P2;Temp;Humidity;BMP_temperature;BMP_pressure;BME280_temperature;BME280_humidity;BME280_pressure;Samples;Min_cycle;Max_cycle;Signal;HPM_P1;HPM_P2
2021/09/03 00:01:51;;;;;;;1.57;1.50;;;13.50;98.00;;;;;;5111844;28;20495;-71
2021/09/03 00:04:19;;;;;;;1.40;1.20;;;13.40;98.00;;;;;;5112008;28;20484;-69
2021/09/03 00:06:47;;;;;;;1.60;1.30;;;13.50;98.00;;;;;;5111793;28;20870;-69
2021/09/03 00:09:14;;;;;;;2.03;1.83;;;13.60;98.00;;;;;;5110540;28;20806;-71
2021/09/03 00:11:41;;;;;;;2.03;1.50;;;13.50;98.00;;;;;;5114491;28;20851;-70
2021/09/03 00:14:08;;;;;;;2.40;2.03;;;13.60;98.00;;;;;;5114359;28;20523;-70
2021/09/03 00:16:37;;;;;;;3.10;1.60;;;13.60;98.00;;;;;;5115444;28;20534;-70
2021/09/03 00:19:04;;;;;;;1.50;1.20;;;13.50;98.00;;;;;;5115641;28;20945;-70
2021/09/03 00:21:33;;;;;;;2.63;1.70;;;13.40;98.00;;;;;;5115433;28;20452;-70
2021/09/03 00:24:00;;;;;;;3.93;1.60;;;13.30;98.00;;;;;;5115421;27;20461;-70
2021/09/03 00:26:27;;;;;;;1.90;1.57;;;13.20;98.00;;;;;;5115405;28;20499;-71
2021/09/03 00:28:54;;;;;;;2.63;1.97;;;13.10;98.00;;;;;;5115268;28;20962;-70
2021/09/03 00:31:21;;;;;;;1.40;1.40;;;13.10;98.00;;;;;;5115357;28;20515;-71
2021/09/03 00:33:48;;;;;;;1.93;1.30;;;13.10;98.00;;;;;;5115320;28;20877;-68
2021/09/03 00:36:15;;;;;;;2.07;1.30;;;13.20;98.00;;;;;;5115094;28;20496;-70
2021/09/03 00:38:44;;;;;;;2.70;1.53;;;13.30;98.00;;;;;;5115465;28;20996;-71
2021/09/03 00:41:11;;;;;;;2.23;1.40;;;13.40;98.00;;;;;;5115170;28;20456;-70
2021/09/03 00:43:38;;;;;;;1.30;1.20;;;13.20;98.00;;;;;;5115168;28;20521;-71
2021/09/03 00:46:06;;;;;;;2.60;1.33;;;13.30;98.00;;;;;;5115147;28;20491;-68
2021/09/03 00:48:34;;;;;;;1.93;1.50;;;13.30;98.00;;;;;;5113966;28;20460;-68
2021/09/03 00:51:01;;;;;;;2.87;1.93;;;13.20;98.00;;;;;;5114707;28;20510;-69
2021/09/03 00:53:30;;;;;;;2.13;1.40;;;13.30;98.00;;;;;;5115090;28;20521;-68
2021/09/03 00:55:59;;;;;;;1.60;1.30;;;13.30;98.00;;;;;;5113762;28;20450;-70
2021/09/03 00:58:26;;;;;;;1.20;1.17;;;13.20;98.00;;;;;;5114941;28;20446;-72
2021/09/03 01:00:53;;;;;;;1.50;1.20;;;13.10;98.00;;;;;;5114790;28;20507;-69
2021/09/03 01:03:21;;;;;;;4.40;1.30;;;13.00;98.00;;;;;;5114885;28;20482;-71
2021/09/03 01:05:48;;;;;;;1.30;1.10;;;13.10;98.00;;;;;;5114782;28;20857;-70
2021/09/03 01:08:15;;;;;;;1.83;1.30;;;13.20;98.00;;;;;;5114637;28;20462;-71
2021/09/03 01:10:42;;;;;;;1.80;1.60;;;13.30;98.00;;;;;;5114534;28;20884;-69
2021/09/03 01:13:10;;;;;;;2.23;1.40;;;13.20;98.00;;;;;;5114591;28;20519;-71
2021/09/03 01:15:37;;;;;;;2.17;1.33;;;13.20;98.00;;;;;;5114660;28;20514;-72
2021/09/03 01:18:06;;;;;;;1.63;1.53;;;12.90;98.00;;;;;;5114696;28;20487;-69
2021/09/03 01:20:39;;;;;;;2.27;1.30;;;12.70;98.00;;;;;;5114588;28;20455;-71
2021/09/03 01:23:07;;;;;;;1.47;1.20;;;12.60;98.00;;;;;;5114151;28;20490;-69
2021/09/03 01:25:34;;;;;;;1.60;1.50;;;12.70;98.00;;;;;;5114305;28;20458;-70
2021/09/03 01:28:01;;;;;;;3.50;1.53;;;12.60;98.00;;;;;;5114153;28;20504;-69
2021/09/03 01:30:28;;;;;;;1.60;1.10;;;12.70;98.00;;;;;;5114090;28;20485;-70
2021/09/03 01:32:56;;;;;;;1.40;1.30;;;12.70;98.00;;;;;;5114262;28;21019;-69
2021/09/03 01:35:23;;;;;;;1.53;1.40;;;12.70;98.00;;;;;;5113890;28;20522;-70
2021/09/03 01:37:50;;;;;;;2.43;1.50;;;12.70;98.00;;;;;;5113800;28;20497;-69
2021/09/03 01:40:19;;;;;;;1.20;1.00;;;12.70;98.00;;;;;;5114039;28;21052;-70
2021/09/03 01:42:46;;;;;;;1.40;1.20;;;12.70;98.00;;;;;;5113999;28;20808;-71
2021/09/03 01:45:12;;;;;;;1.50;1.40;;;12.80;98.00;;;;;;5113901;28;20865;-69
2021/09/03 01:47:40;;;;;;;1.80;1.30;;;12.90;98.00;;;;;;5113713;28;20481;-70
2021/09/03 01:50:08;;;;;;;2.10;1.70;;;12.80;98.00;;;;;;5113999;28;20461;-69
2021/09/03 01:52:38;;;;;;;1.57;1.37;;;12.60;98.00;;;;;;5113814;28;20449;-69
2021/09/03 01:55:06;;;;;;;2.60;1.83;;;12.60;98.00;;;;;;5113562;28;20568;-71
2021/09/03 01:57:34;;;;;;;8.13;1.60;;;12.40;98.00;;;;;;5113632;28;20485;-69
2021/09/03 02:00:01;;;;;;;2.70;1.53;;;12.30;98.00;;;;;;5113814;28;20883;-70
2021/09/03 02:02:29;;;;;;;1.67;1.20;;;12.30;98.00;;;;;;5113273;28;20497;-70
2021/09/03 02:04:57;;;;;;;1.80;1.60;;;12.30;98.00;;;;;;5113580;28;20521;-69
2021/09/03 02:07:24;;;;;;;2.20;1.70;;;12.30;98.00;;;;;;5113549;28;20899;-69
2021/09/03 02:09:51;;;;;;;2.63;1.97;;;12.30;98.00;;;;;;5113429;28;20513;-69
2021/09/03 02:12:18;;;;;;;1.20;1.03;;;12.30;98.00;;;;;;5112030;28;20497;-69
2021/09/03 02:14:47;;;;;;;1.20;1.10;;;12.30;98.00;;;;;;5113318;28;20518;-71
2021/09/03 02:17:14;;;;;;;1.30;1.20;;;12.50;98.00;;;;;;5113287;28;20459;-70
2021/09/03 02:19:41;;;;;;;1.97;1.23;;;12.50;98.00;;;;;;5113407;28;20483;-69
2021/09/03 02:22:08;;;;;;;1.30;1.10;;;12.40;98.00;;;;;;5113154;28;21174;-69
2021/09/03 02:24:36;;;;;;;3.20;1.37;;;12.30;98.00;;;;;;5113280;28;20478;-70
2021/09/03 02:27:03;;;;;;;2.03;1.33;;;12.30;98.00;;;;;;5113086;28;20485;-70
2021/09/03 02:29:30;;;;;;;1.30;1.10;;;12.30;98.00;;;;;;5113099;28;20484;-69
2021/09/03 02:31:58;;;;;;;1.20;1.00;;;12.20;98.00;;;;;;5113053;28;20512;-71
2021/09/03 02:34:26;;;;;;;1.20;1.10;;;12.30;98.00;;;;;;5112445;28;20480;-71
2021/09/03 02:36:54;;;;;;;1.20;1.00;;;12.20;98.00;;;;;;5112641;28;20456;-69
2021/09/03 02:39:21;;;;;;;1.70;1.60;;;12.10;98.00;;;;;;5113023;28;20964;-69
2021/09/03 02:41:48;;;;;;;1.60;1.20;;;12.10;98.00;;;;;;5113207;28;20448;-70
2021/09/03 02:44:15;;;;;;;4.47;1.50;;;12.10;98.00;;;;;;5111655;28;20513;-69
2021/09/03 02:46:42;;;;;;;1.70;1.23;;;12.00;98.00;;;;;;5112980;28;20533;-69
2021/09/03 02:49:10;;;;;;;1.30;1.10;;;12.00;98.00;;;;;;5112652;28;20554;-69
2021/09/03 02:51:38;;;;;;;1.57;1.53;;;12.00;98.00;;;;;;5112507;28;20527;-70
2021/09/03 02:54:04;;;;;;;1.70;1.50;;;12.00;98.00;;;;;;5110532;28;20487;-70
2021/09/03 02:56:31;;;;;;;1.97;1.70;;;12.00;98.00;;;;;;5112584;28;20960;-70
2021/09/03 02:58:58;;;;;;;1.70;1.20;;;11.90;98.00;;;;;;5112288;28;20465;-69
2021/09/03 03:01:25;;;;;;;2.17;1.30;;;12.00;98.00;;;;;;5112436;28;20493;-68
2021/09/03 03:03:52;;;;;;;1.80;1.23;;;11.90;98.00;;;;;;5112441;28;20538;-70
2021/09/03 03:06:21;;;;;;;1.90;1.23;;;12.00;98.00;;;;;;5112232;28;20541;-70
2021/09/03 03:08:48;;;;;;;1.30;1.10;;;12.10;98.00;;;;;;5112331;28;20459;-70
2021/09/03 03:11:15;;;;;;;1.80;1.40;;;12.20;98.00;;;;;;5112451;28;20484;-70
2021/09/03 03:13:46;;;;;;;2.17;1.20;;;12.00;98.00;;;;;;5112265;28;20527;-72
2021/09/03 03:16:14;;;;;;;1.30;1.20;;;11.90;98.00;;;;;;5112171;28;20544;-69
2021/09/03 03:18:42;;;;;;;2.63;1.73;;;12.00;98.00;;;;;;5112349;28;20799;-70
2021/09/03 03:21:10;;;;;;;2.90;1.30;;;11.90;98.00;;;;;;5111130;28;20973;-69
2021/09/03 03:23:38;;;;;;;2.40;1.23;;;11.90;98.00;;;;;;5112029;28;20514;-68
2021/09/03 03:26:05;;;;;;;1.80;1.40;;;11.80;98.00;;;;;;5112069;28;20483;-69
2021/09/03 03:28:32;;;;;;;1.70;1.13;;;11.80;98.00;;;;;;5110790;28;20493;-69
2021/09/03 03:30:59;;;;;;;1.43;1.33;;;11.80;98.00;;;;;;5111818;28;20506;-67
2021/09/03 03:33:26;;;;;;;1.97;1.30;;;11.90;98.00;;;;;;5110789;28;20894;-67
2021/09/03 03:35:53;;;;;;;1.90;1.30;;;11.90;98.00;;;;;;5112005;28;20829;-69
2021/09/03 03:38:20;;;;;;;3.50;1.60;;;11.90;98.00;;;;;;5111987;28;20549;-67
2021/09/03 03:40:48;;;;;;;1.83;1.10;;;11.90;98.00;;;;;;5111944;28;20513;-69
2021/09/03 03:43:16;;;;;;;1.70;1.50;;;11.90;98.00;;;;;;5112013;28;20452;-69
2021/09/03 03:45:46;;;;;;;1.30;1.20;;;11.90;98.00;;;;;;5113967;28;20461;-69
2021/09/03 03:48:13;;;;;;;9.53;1.63;;;11.80;98.00;;;;;;5116128;28;20457;-69
2021/09/03 03:50:40;;;;;;;1.70;1.37;;;11.50;98.00;;;;;;5116267;28;20977;-69
2021/09/03 03:53:11;;;;;;;1.30;1.20;;;11.50;98.00;;;;;;5116201;28;20511;-68
2021/09/03 03:55:38;;;;;;;1.83;1.30;;;11.40;98.00;;;;;;5116041;28;20488;-68
2021/09/03 03:58:06;;;;;;;1.40;1.20;;;11.40;98.00;;;;;;5116198;28;21156;-68
2021/09/03 04:00:33;;;;;;;2.70;1.50;;;11.50;98.00;;;;;;5116267;28;20486;-69
2021/09/03 04:03:00;;;;;;;1.80;1.20;;;11.40;98.00;;;;;;5116284;28;20486;-69
2021/09/03 04:05:27;;;;;;;1.73;1.37;;;11.30;98.00;;;;;;5115959;28;20873;-70
2021/09/03 04:07:54;;;;;;;1.60;1.10;;;11.30;98.00;;;;;;5115964;28;20939;-68
2021/09/03 04:10:22;;;;;;;1.77;1.50;;;11.30;98.00;;;;;;5114521;28;20539;-68
2021/09/03 04:12:50;;;;;;;1.37;1.20;;;11.40;98.00;;;;;;5115566;28;20468;-68
2021/09/03 04:15:18;;;;;;;2.13;1.50;;;11.30;98.00;;;;;;5115759;28;20539;-68
2021/09/03 04:17:45;;;;;;;1.60;1.40;;;11.20;98.00;;;;;;5115541;28;20999;-68
2021/09/03 04:20:12;;;;;;;1.50;1.43;;;11.30;98.00;;;;;;5115298;28;20494;-67
2021/09/03 04:22:39;;;;;;;1.87;1.37;;;11.30;98.00;;;;;;5115505;28;20522;-68
2021/09/03 04:25:08;;;;;;;1.40;1.40;;;11.20;98.00;;;;;;5115518;28;20490;-69
2021/09/03 04:27:35;;;;;;;1.30;1.17;;;11.20;98.00;;;;;;5115128;28;20501;-69
2021/09/03 04:30:03;;;;;;;2.83;1.30;;;11.10;98.00;;;;;;5115210;28;20866;-67
2021/09/03 04:32:31;;;;;;;3.67;1.53;;;11.10;98.00;;;;;;5115319;28;20518;-70
2021/09/03 04:34:59;;;;;;;2.00;1.50;;;11.20;98.00;;;;;;5115111;28;20482;-67
2021/09/03 04:37:26;;;;;;;1.93;1.20;;;11.30;98.00;;;;;;5115122;28;20502;-69
2021/09/03 04:39:58;;;;;;;1.97;1.30;;;11.10;98.00;;;;;;5115135;28;20927;-69
2021/09/03 04:42:25;;;;;;;1.70;1.40;;;11.00;98.00;;;;;;5115140;28;20534;-69
2021/09/03 04:44:52;;;;;;;1.57;1.33;;;10.90;98.00;;;;;;5115015;28;20455;-70
2021/09/03 04:47:19;;;;;;;1.40;1.20;;;10.90;98.00;;;;;;5115181;28;20490;-67
2021/09/03 04:49:47;;;;;;;1.30;1.10;;;11.00;98.00;;;;;;5114903;28;20459;-69
2021/09/03 04:52:15;;;;;;;1.97;1.40;;;11.10;98.00;;;;;;5114930;28;20525;-69
2021/09/03 04:54:42;;;;;;;1.20;1.00;;;11.10;98.00;;;;;;5114845;28;20483;-68
2021/09/03 04:57:09;;;;;;;1.63;1.30;;;11.20;98.00;;;;;;5114159;28;20518;-69
2021/09/03 04:59:36;;;;;;;1.80;1.40;;;11.10;98.00;;;;;;5114592;28;20464;-68
2021/09/03 05:02:03;;;;;;;1.30;1.23;;;11.10;98.00;;;;;;5113872;28;20504;-69
2021/09/03 05:04:30;;;;;;;1.20;1.00;;;11.00;98.00;;;;;;5114022;28;20486;-68
2021/09/03 05:07:06;;;;;;;3.10;1.50;;;11.00;98.00;;;;;;5113870;28;20942;-69
2021/09/03 05:09:33;;;;;;;1.73;1.53;;;11.00;98.00;;;;;;5114043;28;20824;-69
2021/09/03 05:12:00;;;;;;;1.70;1.30;;;11.10;98.00;;;;;;5114701;28;20488;-67
2021/09/03 05:14:27;;;;;;;1.60;1.23;;;11.10;98.00;;;;;;5114795;28;20523;-69
2021/09/03 05:16:54;;;;;;;1.20;1.10;;;11.10;98.00;;;;;;5113461;28;20945;-68
2021/09/03 05:19:21;;;;;;;1.60;1.50;;;11.20;98.00;;;;;;5114863;28;20458;-69
2021/09/03 05:21:48;;;;;;;1.47;1.30;;;11.30;98.00;;;;;;5114630;28;20454;-69
2021/09/03 05:24:16;;;;;;;1.20;0.97;;;11.30;98.00;;;;;;5114580;28;20459;-70
2021/09/03 05:26:43;;;;;;;1.73;1.37;;;11.40;98.00;;;;;;5114675;28;20496;-70
2021/09/03 05:29:11;;;;;;;2.23;1.83;;;11.50;98.00;;;;;;5114519;28;20492;-68
2021/09/03 05:31:38;;;;;;;1.77;1.30;;;11.60;98.00;;;;;;5113933;28;21040;-68
2021/09/03 05:34:05;;;;;;;1.80;1.70;;;11.60;98.00;;;;;;5114062;28;20495;-69
2021/09/03 05:36:32;;;;;;;1.40;1.23;;;11.40;98.00;;;;;;5112997;28;20489;-69
2021/09/03 05:39:03;;;;;;;1.60;1.40;;;11.40;98.00;;;;;;5113948;28;20464;-68
2021/09/03 05:41:31;;;;;;;1.20;1.10;;;11.40;98.00;;;;;;5113857;28;20461;-69
2021/09/03 05:43:58;;;;;;;1.83;1.20;;;11.30;98.00;;;;;;5113872;28;20511;-68
2021/09/03 05:46:25;;;;;;;1.53;1.30;;;11.30;98.00;;;;;;5113854;28;20486;-69
2021/09/03 05:48:52;;;;;;;1.37;1.33;;;11.30;98.00;;;;;;5113705;28;20479;-69
2021/09/03 05:51:20;;;;;;;1.20;1.10;;;11.30;98.00;;;;;;5113585;28;20484;-67
2021/09/03 05:53:47;;;;;;;2.03;1.30;;;11.30;98.00;;;;;;5113734;28;20989;-65
2021/09/03 05:56:14;;;;;;;1.83;1.30;;;11.30;98.00;;;;;;5113454;28;20896;-68
2021/09/03 05:58:42;;;;;;;1.20;1.10;;;11.30;98.00;;;;;;5113830;28;20530;-68
2021/09/03 06:01:09;;;;;;;3.50;1.77;;;11.40;98.00;;;;;;5113489;28;20531;-69
2021/09/03 06:03:36;;;;;;;1.57;1.40;;;11.60;98.00;;;;;;5112345;28;20492;-69
2021/09/03 06:06:03;;;;;;;2.60;1.40;;;11.70;98.00;;;;;;5112211;28;20489;-68
2021/09/03 06:08:30;;;;;;;1.20;1.10;;;11.70;98.00;;;;;;5112381;28;20494;-68
2021/09/03 06:10:57;;;;;;;1.43;1.00;;;11.70;98.00;;;;;;5113421;28;20492;-69
2021/09/03 06:13:24;;;;;;;2.73;1.33;;;11.90;98.00;;;;;;5113467;28;20920;-68
2021/09/03 06:15:52;;;;;;;1.20;1.00;;;12.10;98.00;;;;;;5113304;28;21020;-69
2021/09/03 06:18:19;;;;;;;2.20;1.50;;;12.30;98.00;;;;;;5113406;28;20450;-68
2021/09/03 06:20:46;;;;;;;2.33;1.57;;;12.40;98.00;;;;;;5113062;28;20458;-68
2021/09/03 06:23:13;;;;;;;2.07;1.40;;;12.50;98.00;;;;;;5112063;28;20483;-70
2021/09/03 06:25:40;;;;;;;1.30;1.17;;;12.50;98.00;;;;;;5111985;28;20542;-69
2021/09/03 06:28:07;;;;;;;2.93;1.60;;;12.60;98.00;;;;;;5113145;28;20495;-69
2021/09/03 06:30:34;;;;;;;7.43;1.30;;;12.60;98.00;;;;;;5113214;28;21010;-67
2021/09/03 06:33:04;;;;;;;1.30;1.20;;;12.70;98.00;;;;;;5113048;28;20517;-69
2021/09/03 06:35:31;;;;;;;1.30;1.30;;;12.90;98.00;;;;;;5112802;28;20572;-69
2021/09/03 06:37:58;;;;;;;6.30;1.87;;;13.00;98.00;;;;;;5113123;28;21020;-68
2021/09/03 06:40:25;;;;;;;1.20;1.20;;;13.10;98.00;;;;;;5113074;28;20522;-69
2021/09/03 06:42:52;;;;;;;2.30;1.57;;;13.20;98.00;;;;;;5112964;28;20515;-69
2021/09/03 06:45:19;;;;;;;1.40;1.27;;;13.30;98.00;;;;;;5113032;28;20444;-72
2021/09/03 06:47:46;;;;;;;2.13;1.20;;;13.30;98.00;;;;;;5112525;28;20494;-68
2021/09/03 06:50:16;;;;;;;1.27;1.23;;;13.40;98.00;;;;;;5112894;28;20459;-71
2021/09/03 06:52:43;;;;;;;2.13;1.37;;;13.50;98.00;;;;;;5089669;28;20503;-67
2021/09/03 06:55:11;;;;;;;1.90;1.73;;;13.50;98.00;;;;;;5090668;28;20828;-70
2021/09/03 06:57:40;;;;;;;1.87;1.60;;;13.60;98.00;;;;;;5099010;28;20451;-71
2021/09/03 07:00:08;;;;;;;1.50;1.20;;;13.70;98.00;;;;;;5089636;28;20497;-68
2021/09/03 07:02:35;;;;;;;2.27;1.57;;;13.80;98.00;;;;;;5089698;28;20555;-70
2021/09/03 07:05:02;;;;;;;2.23;1.67;;;13.80;98.00;;;;;;5099300;28;20452;-75
2021/09/03 07:07:31;;;;;;;2.90;1.23;;;13.80;98.00;;;;;;5090699;28;20496;-74
2021/09/03 07:09:58;;;;;;;1.50;1.20;;;13.80;98.00;;;;;;5107848;28;20464;-75
2021/09/03 07:12:25;;;;;;;1.87;1.50;;;14.00;98.00;;;;;;5099830;28;20454;-75
2021/09/03 07:14:53;;;;;;;1.50;1.47;;;14.10;98.00;;;;;;5099611;28;20450;-74
2021/09/03 07:17:19;;;;;;;3.10;1.60;;;14.20;98.00;;;;;;5108844;28;20901;-70
2021/09/03 07:19:46;;;;;;;1.70;1.50;;;14.30;98.00;;;;;;5090335;28;21008;-69
2021/09/03 07:22:14;;;;;;;2.13;1.23;;;14.40;98.00;;;;;;5100589;28;20456;-70
2021/09/03 07:24:42;;;;;;;2.07;1.43;;;14.50;98.00;;;;;;5107779;28;20490;-71
2021/09/03 07:27:09;;;;;;;2.47;1.57;;;14.50;98.00;;;;;;5110614;28;20488;-75
2021/09/03 07:29:38;;;;;;;1.53;1.47;;;14.70;98.00;;;;;;5112520;28;20441;-74
2021/09/03 07:32:07;;;;;;;1.50;1.40;;;14.80;98.00;;;;;;5112245;28;20537;-72
2021/09/03 07:34:34;;;;;;;2.03;1.40;;;15.00;98.00;;;;;;5112058;28;20820;-75
2021/09/03 07:37:01;;;;;;;3.93;2.10;;;15.10;98.00;;;;;;5110859;28;20572;-74
2021/09/03 07:39:29;;;;;;;2.77;1.53;;;15.20;98.00;;;;;;5106338;28;21102;-72
2021/09/03 07:41:58;;;;;;;2.17;1.87;;;15.30;98.00;;;;;;5090488;28;20503;-71
2021/09/03 07:44:26;;;;;;;3.20;1.47;;;15.40;98.00;;;;;;5091817;28;20540;-73
2021/09/03 07:46:52;;;;;;;1.93;1.80;;;15.50;98.00;;;;;;5091724;28;20967;-72
2021/09/03 07:49:19;;;;;;;1.40;1.30;;;15.70;98.00;;;;;;5091899;28;20487;-72
2021/09/03 07:51:46;;;;;;;1.90;1.40;;;15.80;98.00;;;;;;5091743;28;20491;-72
2021/09/03 07:54:14;;;;;;;1.80;1.73;;;16.00;98.00;;;;;;5091770;28;20527;-72
2021/09/03 07:56:41;;;;;;;1.50;1.40;;;16.20;98.00;;;;;;5091628;28;20562;-72
2021/09/03 07:59:09;;;;;;;1.80;1.60;;;16.50;98.00;;;;;;5091692;28;20494;-72
2021/09/03 08:01:36;;;;;;;1.53;1.47;;;16.70;98.00;;;;;;5091549;28;20463;-72
2021/09/03 08:04:03;;;;;;;3.67;1.70;;;16.70;98.00;;;;;;5091705;28;20494;-72
2021/09/03 08:06:30;;;;;;;1.90;1.70;;;16.70;98.00;;;;;;5091702;28;20483;-74
2021/09/03 08:08:57;;;;;;;2.33;1.60;;;16.80;98.00;;;;;;5091371;28;21023;-75
2021/09/03 08:11:24;;;;;;;2.33;1.70;;;16.90;98.00;;;;;;5091694;28;20792;-72
2021/09/03 08:13:51;;;;;;;2.07;1.50;;;17.10;98.00;;;;;;5091338;28;21031;-71
2021/09/03 08:16:19;;;;;;;1.67;1.37;;;17.30;98.00;;;;;;5091427;28;20511;-71
2021/09/03 08:18:46;;;;;;;1.20;1.20;;;17.40;98.00;;;;;;5091454;28;20505;-73
2021/09/03 08:21:13;;;;;;;2.13;1.67;;;17.50;98.00;;;;;;5091303;28;20935;-72
2021/09/03 08:23:40;;;;;;;2.23;1.40;;;17.80;98.00;;;;;;5091181;28;21017;-72
2021/09/03 08:26:08;;;;;;;1.63;1.60;;;17.90;98.00;;;;;;5091498;28;20455;-74
2021/09/03 08:28:35;;;;;;;2.27;1.50;;;18.10;98.00;;;;;;5091113;28;20969;-72
2021/09/03 08:31:03;;;;;;;2.73;2.27;;;18.20;98.00;;;;;;5091287;28;20482;-73
2021/09/03 08:33:31;;;;;;;1.63;1.47;;;18.40;98.00;;;;;;5094896;28;20463;-74
2021/09/03 08:35:58;;;;;;;1.43;1.30;;;18.50;98.00;;;;;;5094921;28;20552;-73
2021/09/03 08:38:25;;;;;;;3.60;1.60;;;18.60;98.00;;;;;;5094903;28;20961;-73
2021/09/03 08:40:52;;;;;;;1.80;1.67;;;18.80;98.00;;;;;;5094939;28;20528;-73
2021/09/03 08:43:20;;;;;;;1.30;1.27;;;19.00;98.00;;;;;;5095026;28;20483;-72
2021/09/03 08:45:47;;;;;;;3.93;1.93;;;19.20;98.00;;;;;;5094798;28;20487;-73
2021/09/03 08:48:18;;;;;;;1.70;1.33;;;19.40;98.00;;;;;;5094788;28;20460;-73
2021/09/03 08:50:47;;;;;;;1.50;1.20;;;19.50;98.00;;;;;;5094843;28;20456;-72
2021/09/03 08:53:17;;;;;;;2.50;1.87;;;19.60;98.00;;;;;;5094779;28;20498;-73
2021/09/03 08:55:45;;;;;;;1.60;1.60;;;19.70;98.00;;;;;;5094591;28;20490;-72
2021/09/03 08:58:13;;;;;;;1.50;1.40;;;19.80;98.00;;;;;;5094666;28;21005;-73
2021/09/03 09:00:41;;;;;;;1.47;1.40;;;19.90;98.00;;;;;;5094594;28;20452;-73
2021/09/03 09:03:10;;;;;;;1.60;1.50;;;20.10;98.00;;;;;;5094394;28;20487;-73
2021/09/03 09:05:53;;;;;;;1.90;1.70;;;20.20;98.00;;;;;;5094495;28;20481;-73
2021/09/03 09:08:23;;;;;;;1.37;1.17;;;20.40;98.00;;;;;;5094583;28;20464;-73
2021/09/03 09:10:54;;;;;;;1.90;1.70;;;20.50;98.00;;;;;;5094430;28;20533;-73
2021/09/03 09:13:23;;;;;;;2.43;1.70;;;20.60;98.00;;;;;;5094268;28;21058;-71
2021/09/03 09:16:02;;;;;;;2.00;1.70;;;20.70;98.00;;;;;;5094104;28;21046;-72
2021/09/03 09:18:37;;;;;;;1.83;1.60;;;20.90;98.00;;;;;;5094172;28;20459;-74
2021/09/03 09:21:17;;;;;;;1.73;1.50;;;21.10;98.00;;;;;;5094251;28;20459;-73
2021/09/03 09:23:46;;;;;;;1.30;1.20;;;21.20;98.00;;;;;;5094144;28;20460;-73
2021/09/03 09:26:14;;;;;;;1.40;1.30;;;21.40;98.00;;;;;;5094400;28;20485;-73
2021/09/03 09:28:42;;;;;;;1.70;1.47;;;21.50;98.00;;;;;;5093796;28;20868;-74
2021/09/03 09:31:13;;;;;;;2.20;1.60;;;21.50;98.00;;;;;;5093986;28;20478;-72
2021/09/03 09:33:45;;;;;;;2.47;1.60;;;21.60;98.00;;;;;;5093837;28;20463;-73
2021/09/03 09:36:15;;;;;;;1.30;1.20;;;21.70;98.00;;;;;;5093752;28;20518;-72
2021/09/03 09:38:42;;;;;;;2.60;2.30;;;21.90;98.00;;;;;;5093903;28;20455;-72
2021/09/03 09:41:12;;;;;;;3.33;2.00;;;22.00;98.00;;;;;;5093763;28;20476;-72
2021/09/03 09:43:40;;;;;;;1.90;1.60;;;22.20;98.00;;;;;;5093189;28;20464;-74
2021/09/03 09:46:20;;;;;;;3.10;1.93;;;22.30;98.00;;;;;;5093668;28;20502;-73
2021/09/03 09:49:13;;;;;;;4.27;1.80;;;22.50;98.00;;;;;;5093913;28;20970;-72
2021/09/03 09:51:48;;;;;;;1.97;1.60;;;22.70;97.10;;;;;;5093460;28;20514;-73
2021/09/03 09:54:18;;;;;;;3.60;1.80;;;22.90;97.30;;;;;;5093620;28;20483;-73
2021/09/03 09:56:49;;;;;;;2.00;1.67;;;23.00;97.00;;;;;;5093462;28;21040;-73
2021/09/03 09:59:17;;;;;;;2.27;1.53;;;23.10;95.70;;;;;;5092152;28;20460;-72
2021/09/03 10:01:48;;;;;;;2.37;1.77;;;23.20;95.70;;;;;;5093129;28;20452;-73
2021/09/03 10:04:17;;;;;;;1.80;1.80;;;23.20;94.70;;;;;;5092162;28;20487;-72
2021/09/03 10:06:47;;;;;;;1.80;1.60;;;23.20;94.80;;;;;;5093285;28;20490;-72
2021/09/03 10:09:15;;;;;;;1.70;1.60;;;23.40;95.30;;;;;;5093155;28;20460;-73
2021/09/03 10:11:44;;;;;;;1.90;1.70;;;23.50;93.70;;;;;;5091882;28;20484;-71
2021/09/03 10:14:15;;;;;;;2.20;1.60;;;23.50;91.00;;;;;;5093236;28;20532;-73
2021/09/03 10:16:43;;;;;;;3.10;2.37;;;23.60;93.40;;;;;;5092906;28;20480;-72
2021/09/03 10:19:10;;;;;;;1.90;1.70;;;23.80;92.40;;;;;;5093093;28;20525;-72
2021/09/03 10:21:40;;;;;;;2.57;2.07;;;23.90;92.70;;;;;;5092895;28;20483;-74
2021/09/03 10:24:19;;;;;;;1.80;1.47;;;24.00;90.90;;;;;;5092908;28;20464;-74
2021/09/03 10:26:47;;;;;;;2.53;1.70;;;24.10;93.60;;;;;;5092773;28;20459;-73
2021/09/03 10:29:25;;;;;;;3.50;1.90;;;24.20;90.70;;;;;;5092816;28;20517;-73
2021/09/03 10:32:13;;;;;;;2.40;1.70;;;24.40;91.30;;;;;;5092696;28;20552;-73
2021/09/03 10:34:50;;;;;;;3.60;1.93;;;24.60;89.80;;;;;;5092806;28;20514;-73
2021/09/03 10:37:29;;;;;;;2.13;1.70;;;24.80;90.30;;;;;;5091519;28;20510;-71
2021/09/03 10:40:02;;;;;;;3.23;2.20;;;24.90;91.00;;;;;;5092741;28;20873;-73
2021/09/03 10:42:58;;;;;;;3.53;2.20;;;25.10;89.20;;;;;;5092666;28;20513;-74
2021/09/03 10:45:34;;;;;;;3.70;2.13;;;25.30;88.40;;;;;;5091712;28;20459;-72
2021/09/03 10:48:23;;;;;;;3.87;1.73;;;25.30;87.40;;;;;;5092702;28;20505;-74
2021/09/03 10:50:53;;;;;;;3.00;2.00;;;25.30;85.50;;;;;;5092606;28;20482;-72
2021/09/03 10:53:37;;;;;;;3.47;2.33;;;25.50;87.50;;;;;;5092693;28;20456;-73
2021/09/03 10:56:23;;;;;;;5.20;2.00;;;25.60;86.10;;;;;;5091927;28;20490;-72
2021/09/03 10:58:55;;;;;;;2.77;1.80;;;25.80;85.60;;;;;;5092227;28;20456;-74
2021/09/03 11:01:33;;;;;;;2.30;1.97;;;26.10;87.80;;;;;;5092405;28;20983;-73
2021/09/03 11:04:04;;;;;;;2.33;1.80;;;26.20;84.40;;;;;;5091945;28;20467;-72
2021/09/03 11:06:33;;;;;;;2.27;1.57;;;26.40;85.10;;;;;;5092172;28;20448;-72
2021/09/03 11:09:03;;;;;;;2.93;1.80;;;26.40;83.40;;;;;;5092215;28;20460;-74
2021/09/03 11:11:34;;;;;;;3.10;2.13;;;26.50;82.50;;;;;;5091940;28;20460;-74
2021/09/03 11:14:03;;;;;;;2.90;1.97;;;26.70;83.10;;;;;;5091773;28;20854;-72
2021/09/03 11:16:36;;;;;;;5.90;1.87;;;26.80;83.90;;;;;;5092082;28;20905;-73
2021/09/03 11:19:05;;;;;;;2.40;1.97;;;26.90;82.80;;;;;;5092145;28;20523;-72
2021/09/03 11:21:34;;;;;;;3.00;2.27;;;27.00;81.80;;;;;;5091928;28;20455;-72
2021/09/03 11:24:02;;;;;;;2.83;1.80;;;27.00;80.70;;;;;;5091914;28;20459;-74
2021/09/03 11:26:36;;;;;;;2.43;1.80;;;26.80;81.50;;;;;;5091992;28;20487;-72
2021/09/03 11:29:05;;;;;;;2.50;1.97;;;26.90;82.50;;;;;;5091775;28;20543;-73
2021/09/03 11:31:34;;;;;;;2.50;2.20;;;27.00;79.70;;;;;;5091813;28;20456;-73
2021/09/03 11:34:05;;;;;;;2.33;1.83;;;27.10;81.10;;;;;;5092019;28;20448;-73
2021/09/03 11:36:46;;;;;;;4.03;2.00;;;27.30;79.60;;;;;;5091766;28;20567;-74
2021/09/03 11:39:16;;;;;;;2.70;2.00;;;27.60;79.10;;;;;;5091831;28;21017;-72
2021/09/03 11:41:51;;;;;;;2.53;2.10;;;27.50;79.50;;;;;;5091827;28;20459;-73
2021/09/03 11:44:18;;;;;;;2.37;2.00;;;27.70;79.00;;;;;;5091948;28;20494;-71
2021/09/03 11:46:45;;;;;;;2.43;1.90;;;28.00;78.10;;;;;;5091862;28;20857;-73
2021/09/03 11:49:12;;;;;;;4.20;2.07;;;28.20;78.90;;;;;;5091758;28;20494;-72
2021/09/03 11:51:39;;;;;;;2.30;1.73;;;28.20;76.80;;;;;;5092119;28;20487;-72
2021/09/03 11:54:06;;;;;;;2.47;2.07;;;28.30;74.60;;;;;;5091991;28;20525;-73
2021/09/03 11:56:33;;;;;;;2.90;2.00;;;28.30;73.20;;;;;;5091851;28;20545;-75
2021/09/03 11:59:09;;;;;;;2.03;1.57;;;28.20;75.30;;;;;;5091751;28;20448;-74
2021/09/03 12:01:36;;;;;;;3.20;2.30;;;28.10;76.40;;;;;;5090398;28;20519;-72
2021/09/03 12:04:09;;;;;;;5.63;3.03;;;27.90;76.00;;;;;;5091738;28;20981;-74
2021/09/03 12:06:38;;;;;;;2.93;1.80;;;27.70;74.50;;;;;;5094872;28;20462;-72
2021/09/03 12:09:23;;;;;;;3.80;1.73;;;27.50;76.90;;;;;;5095372;28;20451;-73
2021/09/03 12:11:58;;;;;;;4.70;1.83;;;27.30;77.80;;;;;;5095058;28;20543;-72
2021/09/03 12:14:26;;;;;;;2.60;2.03;;;27.20;77.30;;;;;;5095061;28;20963;-73
2021/09/03 12:16:53;;;;;;;1.93;1.80;;;27.20;76.60;;;;;;5094774;28;20516;-73
2021/09/03 12:19:25;;;;;;;4.50;2.17;;;27.20;77.00;;;;;;5095213;28;20495;-72
2021/09/03 12:21:52;;;;;;;3.10;1.90;;;27.10;75.90;;;;;;5095402;28;20475;-72
2021/09/03 12:24:23;;;;;;;1.83;1.70;;;27.20;76.70;;;;;;5095455;28;20443;-74
2021/09/03 12:26:52;;;;;;;2.50;1.80;;;27.30;76.20;;;;;;5095080;28;20543;-75
2021/09/03 12:29:21;;;;;;;3.13;2.30;;;27.60;77.70;;;;;;5095333;28;20588;-72
2021/09/03 12:31:55;;;;;;;3.10;1.97;;;27.60;76.70;;;;;;5095131;28;20475;-73
2021/09/03 12:34:24;;;;;;;2.23;1.73;;;27.60;76.40;;;;;;5095201;28;20508;-73
2021/09/03 12:36:58;;;;;;;1.80;1.60;;;27.50;75.20;;;;;;5094996;28;20513;-73
2021/09/03 12:39:26;;;;;;;4.70;2.10;;;27.70;76.70;;;;;;5095169;28;20686;-72
2021/09/03 12:41:56;;;;;;;2.23;1.87;;;27.70;76.80;;;;;;5094864;28;20455;-73
2021/09/03 12:44:26;;;;;;;2.30;2.07;;;27.70;74.90;;;;;;5094970;28;20950;-74
2021/09/03 12:46:56;;;;;;;3.37;2.07;;;27.70;73.80;;;;;;5094932;28;20455;-72
2021/09/03 12:49:26;;;;;;;3.10;1.93;;;27.80;74.50;;;;;;5095044;28;20451;-73
2021/09/03 12:51:56;;;;;;;3.00;1.90;;;28.00;76.00;;;;;;5094586;28;20543;-72
2021/09/03 12:54:23;;;;;;;2.70;2.20;;;28.30;72.70;;;;;;5095865;28;20456;-73
2021/09/03 12:56:51;;;;;;;2.40;1.90;;;28.40;74.30;;;;;;5095554;28;20487;-73